Time;durP1;ratioP1;P1;durP2;ratioP2;P2;SDS_P1;SDS_P2;PMS_P1;PMS_P2;Temp;Humidity;BMP_temperature;BMP_pressure;BME280_temperature;BME280_humidity;BME280_pressure;Samples;Min_cycle;Max_cycle;Signal;HPM_P1;HPM_P2
2023/12/16 00:00:57;;;;;;;8.55;2.13;;;7.60;99.90;;;;;;5111723;27;20522;-78
2023/12/16 00:03:23;;;;;;;9.30;1.92;;;7.60;99.90;;;;;;5117096;27;20044;-78
2023/12/16 00:05:49;;;;;;;8.60;1.98;;;7.60;99.90;;;;;;5139452;27;20500;-78
2023/12/16 00:08:14;;;;;;;9.90;2.03;;;7.50;99.90;;;;;;5096395;28;20039;-78
2023/12/16 00:10:40;;;;;;;7.78;1.80;;;7.50;99.90;;;;;;5111365;28;20039;-78
2023/12/16 00:13:06;;;;;;;9.40;2.22;;;7.50;99.90;;;;;;5144113;27;20039;-78
2023/12/16 00:15:31;;;;;;;8.43;2.22;;;7.50;99.90;;;;;;5097790;28;20048;-78
2023/12/16 00:17:57;;;;;;;6.25;1.60;;;7.50;99.90;;;;;;5111669;28;20043;-78
2023/12/16 00:20:23;;;;;;;8.57;1.77;;;7.40;99.90;;;;;;5130911;27;20035;-78
2023/12/16 00:22:49;;;;;;;9.60;2.15;;;7.50;99.90;;;;;;5130728;27;20046;-78
2023/12/16 00:25:14;;;;;;;7.60;1.70;;;7.50;99.90;;;;;;5098387;28;20038;-78
2023/12/16 00:27:40;;;;;;;8.93;1.88;;;7.60;99.90;;;;;;5098190;28;20039;-78
2023/12/16 00:30:07;;;;;;;5.95;1.70;;;7.50;99.90;;;;;;5115018;28;20065;-78
2023/12/16 00:32:32;;;;;;;9.65;1.60;;;7.60;99.90;;;;;;5097241;28;20472;-78
2023/12/16 00:34:58;;;;;;;7.05;2.10;;;7.70;99.90;;;;;;5128869;27;20036;-78
2023/12/16 00:37:24;;;;;;;8.18;1.73;;;7.80;99.90;;;;;;5114751;28;20051;-78
2023/12/16 00:39:49;;;;;;;8.95;2.03;;;7.70;99.90;;;;;;5097728;28;20039;-78
2023/12/16 00:42:15;;;;;;;8.10;2.00;;;7.60;99.90;;;;;;5114099;28;20085;-78
2023/12/16 00:44:41;;;;;;;8.48;2.03;;;7.60;99.90;;;;;;5148015;27;20036;-78
2023/12/16 00:47:06;;;;;;;8.90;1.90;;;7.60;99.90;;;;;;5114607;28;20123;-78
2023/12/16 00:49:32;;;;;;;9.38;1.92;;;7.50;99.90;;;;;;5097587;28;20093;-78
2023/12/16 00:51:58;;;;;;;12.73;1.92;;;7.60;99.90;;;;;;5097412;28;20043;-78
2023/12/16 00:54:24;;;;;;;6.85;1.70;;;7.50;99.90;;;;;;5147291;27;20126;-78
2023/12/16 00:56:50;;;;;;;7.55;1.70;;;7.50;99.90;;;;;;5096323;28;20039;-78
2023/12/16 00:59:16;;;;;;;8.43;1.75;;;7.50;99.90;;;;;;5097152;28;20047;-78
2023/12/16 01:01:42;;;;;;;5.97;1.60;;;7.50;99.90;;;;;;5117405;27;20054;-78
2023/12/16 01:04:09;;;;;;;8.98;1.90;;;7.40;99.90;;;;;;5096052;27;20042;-77
2023/12/16 01:06:34;;;;;;;9.50;1.92;;;7.40;99.90;;;;;;5097587;28;20040;-78
2023/12/16 01:09:00;;;;;;;8.70;1.83;;;7.40;99.90;;;;;;5114356;28;20105;-78
2023/12/16 01:11:25;;;;;;;6.28;1.52;;;7.30;99.90;;;;;;5096945;28;20036;-78
2023/12/16 01:13:51;;;;;;;7.45;1.55;;;7.30;99.90;;;;;;5113844;27;20043;-78
2023/12/16 01:16:17;;;;;;;8.77;1.60;;;7.30;99.90;;;;;;5129576;27;20043;-78
2023/12/16 01:18:43;;;;;;;9.55;1.58;;;7.30;99.90;;;;;;5113740;28;20082;-78
2023/12/16 01:21:08;;;;;;;7.10;1.67;;;7.30;99.90;;;;;;5096568;27;20039;-77
2023/12/16 01:23:35;;;;;;;4.32;1.45;;;7.30;99.90;;;;;;5096923;28;20395;-78
2023/12/16 01:26:00;;;;;;;8.82;1.60;;;7.30;99.90;;;;;;5112218;27;20574;-77
2023/12/16 01:28:26;;;;;;;9.40;2.05;;;7.30;99.90;;;;;;5129846;27;20114;-77
2023/12/16 01:30:52;;;;;;;6.10;1.60;;;7.30;99.90;;;;;;5096806;28;20050;-78
2023/12/16 01:33:18;;;;;;;8.02;1.75;;;7.40;99.90;;;;;;5113109;27;20039;-78
2023/12/16 01:35:43;;;;;;;8.75;1.67;;;7.30;99.90;;;;;;5128152;27;20119;-78
2023/12/16 01:38:09;;;;;;;8.27;1.80;;;7.20;99.90;;;;;;5130552;27;20036;-78
2023/12/16 01:40:36;;;;;;;7.10;1.83;;;7.10;99.90;;;;;;5130650;27;20036;-78
2023/12/16 01:43:06;;;;;;;7.90;1.75;;;7.10;99.90;;;;;;5129642;27;20546;-78
2023/12/16 01:45:32;;;;;;;9.05;1.50;;;7.10;99.90;;;;;;5112875;28;20058;-78
2023/12/16 01:47:59;;;;;;;7.70;2.00;;;7.10;99.90;;;;;;5095906;28;20484;-77
2023/12/16 01:50:26;;;;;;;9.10;1.50;;;7.10;99.90;;;;;;5130505;27;20613;-78
2023/12/16 01:52:53;;;;;;;7.55;2.00;;;7.10;99.90;;;;;;5112556;28;20051;-78
2023/12/16 01:55:19;;;;;;;8.13;1.90;;;7.00;99.90;;;;;;5129916;27;20048;-78
2023/12/16 01:57:46;;;;;;;9.40;1.48;;;7.10;99.90;;;;;;5111368;28;20393;-78
2023/12/16 02:00:13;;;;;;;7.05;1.65;;;6.90;99.90;;;;;;5130339;27;20062;-78
2023/12/16 02:02:40;;;;;;;6.32;1.50;;;7.10;99.90;;;;;;5096194;28;20476;-78
2023/12/16 02:05:06;;;;;;;4.85;1.42;;;7.10;99.90;;;;;;5096416;28;20069;-78
2023/12/16 02:07:32;;;;;;;8.70;1.95;;;7.20;99.90;;;;;;5145204;27;20429;-78
2023/12/16 02:09:58;;;;;;;8.60;1.73;;;7.20;99.90;;;;;;5095447;28;20044;-78
2023/12/16 02:12:26;;;;;;;7.82;1.80;;;7.10;99.90;;;;;;5096031;28;20513;-78
2023/12/16 02:14:52;;;;;;;11.02;1.70;;;7.10;99.90;;;;;;5112353;27;20288;-78
2023/12/16 02:17:18;;;;;;;9.52;1.63;;;7.10;99.90;;;;;;5144616;27;20108;-78
2023/12/16 02:19:45;;;;;;;8.20;1.63;;;7.20;99.90;;;;;;5129857;27;20471;-78
2023/12/16 02:22:11;;;;;;;6.32;1.40;;;7.10;99.90;;;;;;5130009;27;20040;-78
2023/12/16 02:24:38;;;;;;;8.23;1.77;;;7.10;99.90;;;;;;5112423;27;20485;-78
2023/12/16 02:27:04;;;;;;;9.93;2.10;;;7.00;99.90;;;;;;5125898;27;20479;-78
2023/12/16 02:29:30;;;;;;;10.00;2.05;;;7.00;99.90;;;;;;5095719;28;20036;-78
2023/12/16 02:31:55;;;;;;;8.00;2.33;;;6.90;99.90;;;;;;5095738;28;20464;-78
2023/12/16 02:34:23;;;;;;;10.30;1.90;;;7.00;99.90;;;;;;5112839;28;20077;-78
2023/12/16 02:36:49;;;;;;;8.93;1.75;;;7.00;99.90;;;;;;5094425;27;20040;-78
2023/12/16 02:39:15;;;;;;;10.63;1.92;;;6.90;99.90;;;;;;5106695;28;20054;-77
2023/12/16 02:41:40;;;;;;;8.65;2.03;;;7.00;99.90;;;;;;5129694;27;20062;-77
2023/12/16 02:44:06;;;;;;;9.88;1.88;;;6.90;99.90;;;;;;5095628;28;20071;-77
2023/12/16 02:46:32;;;;;;;9.93;2.15;;;6.90;99.90;;;;;;5146303;27;20036;-78
2023/12/16 02:48:57;;;;;;;5.85;2.00;;;6.90;99.90;;;;;;5128475;27;20043;-78
2023/12/16 02:51:23;;;;;;;11.45;3.15;;;6.90;99.90;;;;;;5112408;28;20040;-78
2023/12/16 02:53:49;;;;;;;11.98;2.00;;;6.90;99.90;;;;;;5112338;28;20035;-78
2023/12/16 02:56:14;;;;;;;8.93;1.88;;;6.90;99.90;;;;;;5111725;28;20032;-77
2023/12/16 02:58:40;;;;;;;12.23;2.53;;;6.90;99.90;;;;;;5099834;28;20043;-77
2023/12/16 03:01:06;;;;;;;9.00;1.77;;;6.90;99.90;;;;;;5111434;28;20043;-77
2023/12/16 03:03:32;;;;;;;9.65;1.95;;;6.90;99.90;;;;;;5095523;28;20043;-77
2023/12/16 03:06:04;;;;;;;7.43;1.90;;;6.80;99.90;;;;;;5094807;28;20396;-78
2023/12/16 03:08:30;;;;;;;;;;;6.80;99.90;;;;;;5111921;28;20040;-78
2023/12/16 03:10:55;;;;;;;6.22;1.52;;;6.80;99.90;;;;;;5111401;28;19938;-78
2023/12/16 03:13:21;;;;;;;5.88;1.83;;;6.60;99.90;;;;;;5111470;28;20069;-78
2023/12/16 03:15:47;;;;;;;6.82;2.28;;;6.60;99.90;;;;;;5111435;28;20062;-78
2023/12/16 03:18:12;;;;;;;7.57;2.20;;;6.70;99.90;;;;;;5111553;28;20040;-78
2023/12/16 03:20:38;;;;;;;7.47;1.67;;;6.80;99.90;;;;;;5147862;27;20038;-77
2023/12/16 03:23:03;;;;;;;8.65;2.78;;;6.80;99.90;;;;;;5099326;28;20039;-77
2023/12/16 03:25:29;;;;;;;5.35;1.90;;;6.80;99.90;;;;;;5115783;27;20032;-77
2023/12/16 03:27:55;;;;;;;7.68;1.88;;;6.80;99.90;;;;;;5132616;27;20059;-77
2023/12/16 03:30:20;;;;;;;11.88;2.08;;;6.80;99.90;;;;;;5097952;28;20059;-77
2023/12/16 03:32:46;;;;;;;9.43;2.25;;;6.70;99.90;;;;;;5099387;28;20042;-77
2023/12/16 03:35:11;;;;;;;9.98;2.90;;;6.70;99.90;;;;;;5099146;28;20038;-77
2023/12/16 03:37:37;;;;;;;6.63;1.40;;;6.70;99.90;;;;;;5098372;28;20042;-77
2023/12/16 03:40:03;;;;;;;9.05;1.77;;;6.70;99.90;;;;;;5114607;28;20035;-77
2023/12/16 03:42:29;;;;;;;8.25;1.95;;;6.70;99.90;;;;;;5098631;28;20040;-77
2023/12/16 03:44:55;;;;;;;9.10;2.50;;;6.60;99.90;;;;;;5150255;27;20035;-77
2023/12/16 03:47:20;;;;;;;6.57;1.98;;;6.70;99.90;;;;;;5115705;27;20510;-77
2023/12/16 03:49:46;;;;;;;6.20;2.03;;;6.60;99.90;;;;;;5133059;27;20067;-77
2023/12/16 03:52:12;;;;;;;12.05;2.28;;;6.70;99.90;;;;;;5130856;27;20043;-77
2023/12/16 03:54:38;;;;;;;10.38;1.92;;;6.60;99.90;;;;;;5130052;27;20039;-77
2023/12/16 03:57:03;;;;;;;9.05;3.35;;;6.60;99.90;;;;;;5106160;27;20084;-77
2023/12/16 03:59:29;;;;;;;6.53;1.83;;;6.60;99.90;;;;;;5132374;27;20496;-77
2023/12/16 04:01:55;;;;;;;15.23;2.35;;;6.60;99.90;;;;;;5130994;27;20109;-77
2023/12/16 04:04:20;;;;;;;8.77;1.85;;;6.60;99.90;;;;;;5098853;28;20031;-77
2023/12/16 04:06:46;;;;;;;5.28;1.58;;;6.50;99.90;;;;;;5114906;27;20067;-77
2023/12/16 04:09:12;;;;;;;6.43;2.20;;;6.50;99.90;;;;;;5132126;27;20115;-77
2023/12/16 04:11:46;;;;;;;14.90;3.35;;;6.50;99.90;;;;;;5131464;27;20522;-77
2023/12/16 04:14:11;;;;;;;8.88;1.90;;;6.50;99.90;;;;;;5115620;28;20407;-77
2023/12/16 04:16:37;;;;;;;7.00;1.60;;;6.50;99.90;;;;;;5114398;28;20044;-77
2023/12/16 04:19:03;;;;;;;7.78;1.90;;;6.40;99.90;;;;;;5132235;27;20036;-77
2023/12/16 04:21:28;;;;;;;12.30;2.20;;;6.50;99.90;;;;;;5130506;27;20036;-77
2023/12/16 04:23:54;;;;;;;11.57;1.90;;;6.50;99.90;;;;;;5115142;28;20119;-77
2023/12/16 04:26:19;;;;;;;8.15;1.90;;;6.50;99.90;;;;;;5114511;28;20130;-77
2023/12/16 04:28:45;;;;;;;8.52;1.55;;;6.40;99.90;;;;;;5098018;28;20108;-77
2023/12/16 04:31:16;;;;;;;8.82;2.30;;;6.40;99.90;;;;;;5131607;27;20546;-77
2023/12/16 04:33:42;;;;;;;11.90;2.40;;;6.50;99.90;;;;;;5128843;27;20038;-77
2023/12/16 04:36:16;;;;;;;7.13;1.67;;;6.50;99.90;;;;;;5097629;28;20043;-77
2023/12/16 04:38:42;;;;;;;8.43;2.13;;;6.50;99.90;;;;;;5098491;27;20050;-77
2023/12/16 04:41:11;;;;;;;8.45;2.13;;;6.50;99.90;;;;;;5104993;27;20128;-77
2023/12/16 04:43:36;;;;;;;11.07;2.65;;;6.50;99.90;;;;;;5110371;27;20035;-77
2023/12/16 04:46:02;;;;;;;10.93;2.53;;;6.40;99.90;;;;;;5118895;27;20046;-77
2023/12/16 04:48:28;;;;;;;10.55;2.63;;;6.50;99.90;;;;;;5116160;27;20056;-77
2023/12/16 04:50:53;;;;;;;9.95;1.95;;;6.50;99.90;;;;;;5138058;27;20054;-77
2023/12/16 04:53:19;;;;;;;10.13;2.78;;;6.50;99.90;;;;;;5090603;27;20044;-77
2023/12/16 04:55:45;;;;;;;9.20;2.72;;;6.50;99.90;;;;;;5126012;27;20048;-77
2023/12/16 04:58:10;;;;;;;10.40;2.17;;;6.50;99.90;;;;;;5113525;27;20051;-77
2023/12/16 05:00:36;;;;;;;10.05;2.45;;;6.50;99.90;;;;;;5089335;27;20042;-77
2023/12/16 05:03:03;;;;;;;8.30;1.90;;;6.50;99.90;;;;;;5073519;27;20077;-78
2023/12/16 05:05:29;;;;;;;8.55;2.55;;;6.40;99.90;;;;;;5104778;27;20510;-77
2023/12/16 05:07:54;;;;;;;8.35;1.83;;;6.50;99.90;;;;;;5090226;27;20059;-78
2023/12/16 05:10:20;;;;;;;8.27;1.58;;;6.40;99.90;;;;;;5083377;28;20047;-77
2023/12/16 05:12:45;;;;;;;9.32;2.20;;;6.40;99.90;;;;;;5115369;27;20039;-77
2023/12/16 05:15:11;;;;;;;9.98;2.10;;;6.40;99.90;;;;;;5123614;27;20032;-77
2023/12/16 05:17:37;;;;;;;8.15;1.63;;;6.40;99.90;;;;;;5124676;27;20039;-77
2023/12/16 05:20:03;;;;;;;14.20;2.53;;;6.40;99.90;;;;;;5090157;27;20128;-77
2023/12/16 05:22:33;;;;;;;13.20;2.72;;;6.40;99.90;;;;;;5098204;27;20062;-77
2023/12/16 05:25:00;;;;;;;8.73;2.22;;;6.40;99.90;;;;;;5105698;27;20047;-77
2023/12/16 05:27:26;;;;;;;12.55;3.30;;;6.30;99.90;;;;;;5124133;27;20039;-77
2023/12/16 05:29:52;;;;;;;13.32;2.55;;;6.40;99.90;;;;;;5090062;27;20073;-77
2023/12/16 05:32:17;;;;;;;8.55;2.10;;;6.40;99.90;;;;;;5117296;27;20130;-77
2023/12/16 05:34:43;;;;;;;8.77;2.75;;;6.40;99.90;;;;;;5116134;27;20130;-77
2023/12/16 05:37:08;;;;;;;13.43;2.65;;;6.40;99.90;;;;;;5151189;27;20382;-78
2023/12/16 05:39:34;;;;;;;11.93;2.58;;;6.40;99.90;;;;;;5113501;28;20035;-77
2023/12/16 05:42:00;;;;;;;14.10;2.95;;;6.40;99.90;;;;;;5095757;28;20119;-77
2023/12/16 05:44:25;;;;;;;7.50;1.45;;;6.30;99.90;;;;;;5127919;27;20066;-77
2023/12/16 05:46:51;;;;;;;10.98;2.15;;;6.50;99.90;;;;;;5096475;28;20039;-77
2023/12/16 05:49:17;;;;;;;14.85;3.25;;;6.40;99.90;;;;;;5113544;28;20043;-78
2023/12/16 05:51:43;;;;;;;10.85;2.35;;;6.40;99.90;;;;;;5096683;28;20368;-78
2023/12/16 05:54:09;;;;;;;13.95;2.70;;;6.40;99.90;;;;;;5097473;28;20101;-77
2023/12/16 05:56:34;;;;;;;11.05;2.05;;;6.40;99.90;;;;;;5113348;28;20047;-78
2023/12/16 05:59:00;;;;;;;9.90;2.10;;;6.50;99.90;;;;;;5113039;28;20513;-78
2023/12/16 06:01:26;;;;;;;14.88;3.00;;;6.50;99.90;;;;;;5096164;28;20071;-78
2023/12/16 06:03:52;;;;;;;4.95;1.80;;;6.50;99.90;;;;;;5096472;28;20039;-78
2023/12/16 06:06:18;;;;;;;8.75;2.55;;;6.60;99.90;;;;;;5112522;28;20092;-78
2023/12/16 06:08:44;;;;;;;6.47;2.05;;;6.60;99.90;;;;;;5096097;28;20045;-78
2023/12/16 06:11:13;;;;;;;8.63;2.53;;;6.60;99.90;;;;;;5096023;28;20126;-78
2023/12/16 06:13:42;;;;;;;7.28;2.38;;;6.60;99.90;;;;;;5113337;28;20099;-78
2023/12/16 06:16:08;;;;;;;6.03;1.77;;;6.70;99.90;;;;;;5111751;28;20040;-78
2023/12/16 06:18:34;;;;;;;11.18;2.55;;;6.70;99.90;;;;;;5130016;27;20122;-78
2023/12/16 06:21:00;;;;;;;15.75;3.33;;;6.70;99.90;;;;;;5147243;27;20514;-78
2023/12/16 06:23:27;;;;;;;11.05;2.67;;;6.80;99.90;;;;;;5129859;27;20039;-78
2023/12/16 06:25:53;;;;;;;10.82;2.35;;;6.70;99.90;;;;;;5146523;27;20047;-78
2023/12/16 06:28:19;;;;;;;11.95;2.28;;;6.70;99.90;;;;;;5113045;28;20539;-78
2023/12/16 06:30:44;;;;;;;14.45;3.47;;;6.80;99.90;;;;;;5103817;27;20066;-78
2023/12/16 06:33:10;;;;;;;11.27;2.65;;;6.80;99.90;;;;;;5121016;27;20036;-78
2023/12/16 06:35:36;;;;;;;9.30;3.60;;;6.80;99.90;;;;;;5096501;28;20450;-78
2023/12/16 06:38:01;;;;;;;15.25;4.28;;;6.80;99.90;;;;;;5111455;28;20082;-78
2023/12/16 06:40:27;;;;;;;10.07;2.35;;;6.90;99.90;;;;;;5095628;28;20031;-77
2023/12/16 06:42:54;;;;;;;8.77;2.53;;;6.90;99.90;;;;;;5083426;27;20061;-77
2023/12/16 06:45:20;;;;;;;10.35;3.00;;;6.90;99.90;;;;;;5107915;27;20116;-78
2023/12/16 06:47:46;;;;;;;13.45;2.97;;;6.90;99.90;;;;;;5105050;27;20162;-77
2023/12/16 06:50:11;;;;;;;13.88;3.13;;;6.90;99.90;;;;;;5125839;27;20065;-77
2023/12/16 06:52:37;;;;;;;14.10;2.80;;;7.00;99.90;;;;;;5110442;27;20055;-77
2023/12/16 06:55:03;;;;;;;11.35;2.97;;;7.00;99.90;;;;;;5096887;27;20031;-77
2023/12/16 06:57:32;;;;;;;17.73;3.85;;;7.00;99.90;;;;;;5087395;27;20591;-78
2023/12/16 06:59:58;;;;;;;13.93;3.88;;;7.00;99.90;;;;;;5123348;27;20052;-77
2023/12/16 07:02:25;;;;;;;11.40;3.42;;;7.00;99.90;;;;;;5075240;28;20660;-78
2023/12/16 07:04:50;;;;;;;15.70;5.60;;;7.10;99.90;;;;;;5098438;28;20034;-78
2023/12/16 07:07:16;;;;;;;12.82;4.07;;;7.10;99.90;;;;;;5109110;28;20027;-78
2023/12/16 07:09:42;;;;;;;12.07;3.67;;;7.00;99.90;;;;;;5095289;28;20046;-78
2023/12/16 07:12:08;;;;;;;13.77;4.18;;;7.00;99.90;;;;;;5146468;27;20550;-78
2023/12/16 07:14:38;;;;;;;13.82;3.60;;;7.10;99.90;;;;;;5129300;28;20093;-78
2023/12/16 07:17:04;;;;;;;16.92;3.97;;;7.00;99.90;;;;;;5145016;27;20399;-78
2023/12/16 07:19:31;;;;;;;20.70;4.75;;;7.00;99.90;;;;;;5094658;28;20118;-78
2023/12/16 07:21:57;;;;;;;17.13;4.03;;;7.10;99.90;;;;;;5129385;28;20505;-78
2023/12/16 07:24:23;;;;;;;17.20;4.65;;;7.10;99.90;;;;;;5146520;27;20081;-77
2023/12/16 07:26:49;;;;;;;13.35;4.07;;;7.00;99.90;;;;;;5130320;27;20032;-77
2023/12/16 07:29:14;;;;;;;15.68;3.45;;;7.10;99.90;;;;;;5111889;28;20114;-78
2023/12/16 07:31:40;;;;;;;18.55;5.13;;;7.30;99.90;;;;;;5129175;28;20544;-77
2023/12/16 07:34:06;;;;;;;16.83;4.28;;;7.20;99.90;;;;;;5095337;28;20365;-77
2023/12/16 07:36:32;;;;;;;15.45;4.32;;;7.20;99.90;;;;;;5112209;28;20047;-77
2023/12/16 07:38:58;;;;;;;13.40;3.85;;;7.20;99.90;;;;;;5145228;27;20528;-77
2023/12/16 07:41:24;;;;;;;17.00;4.03;;;7.30;99.90;;;;;;5111982;28;20559;-77
2023/12/16 07:43:50;;;;;;;11.60;2.97;;;7.30;99.90;;;;;;5094911;28;20071;-77
2023/12/16 07:46:16;;;;;;;13.07;3.65;;;7.30;99.90;;;;;;5111964;28;20100;-77
2023/12/16 07:48:45;;;;;;;12.98;3.78;;;7.50;99.90;;;;;;5111021;28;20051;-77
2023/12/16 07:51:19;;;;;;;11.80;3.65;;;7.40;99.90;;;;;;5093289;28;20043;-77
2023/12/16 07:53:48;;;;;;;15.18;4.40;;;7.40;99.90;;;;;;5095071;28;20465;-77
2023/12/16 07:56:21;;;;;;;11.45;3.55;;;7.50;99.90;;;;;;5111812;28;20046;-77
2023/12/16 07:58:48;;;;;;;14.88;3.55;;;7.40;99.90;;;;;;5094684;28;20048;-77
2023/12/16 08:01:14;;;;;;;11.98;3.00;;;7.40;99.90;;;;;;5110928;28;20487;-77
2023/12/16 08:03:40;;;;;;;12.63;4.00;;;7.40;99.90;;;;;;5111688;28;20502;-77
2023/12/16 08:06:06;;;;;;;17.95;4.57;;;7.40;99.90;;;;;;5096037;28;20036;-77
2023/12/16 08:08:32;;;;;;;11.85;3.40;;;7.40;99.90;;;;;;5098789;28;20528;-77
2023/12/16 08:10:58;;;;;;;14.50;4.03;;;7.30;99.90;;;;;;5108879;28;20048;-77
2023/12/16 08:13:25;;;;;;;19.20;4.20;;;7.40;99.90;;;;;;5112108;28;20047;-77
2023/12/16 08:15:50;;;;;;;14.00;3.80;;;7.40;99.90;;;;;;5112176;28;20059;-77
2023/12/16 08:18:17;;;;;;;20.40;5.22;;;7.30;99.90;;;;;;5111782;28;20040;-77
2023/12/16 08:20:42;;;;;;;15.15;4.97;;;7.20;99.90;;;;;;5095155;27;20488;-77
2023/12/16 08:23:08;;;;;;;16.42;4.22;;;7.30;99.90;;;;;;5113491;27;20070;-77
2023/12/16 08:25:37;;;;;;;16.90;4.22;;;7.40;99.90;;;;;;5111861;27;20091;-80
2023/12/16 08:28:03;;;;;;;17.40;4.45;;;7.40;99.90;;;;;;5098140;28;20084;-76
2023/12/16 08:30:28;;;;;;;28.20;4.70;;;7.50;99.90;;;;;;5149393;27;20395;-77
2023/12/16 08:32:54;;;;;;;15.27;5.05;;;7.60;99.90;;;;;;5098132;28;20039;-77
2023/12/16 08:35:20;;;;;;;17.77;4.70;;;7.60;99.90;;;;;;5113169;27;20502;-77
2023/12/16 08:37:45;;;;;;;14.00;3.75;;;7.60;99.90;;;;;;5132296;27;20116;-77
2023/12/16 08:40:12;;;;;;;15.68;3.50;;;7.60;99.90;;;;;;5097243;28;20122;-77
2023/12/16 08:42:42;;;;;;;14.23;3.60;;;7.70;99.90;;;;;;5149070;27;20036;-77
2023/12/16 08:45:09;;;;;;;16.23;4.50;;;7.80;99.90;;;;;;5096768;28;20040;-76
2023/12/16 08:47:34;;;;;;;13.05;3.42;;;7.70;99.90;;;;;;5096848;28;20134;-77
2023/12/16 08:50:00;;;;;;;14.38;4.32;;;7.70;99.90;;;;;;5096963;28;20126;-77
2023/12/16 08:52:27;;;;;;;15.25;4.38;;;7.70;99.90;;;;;;5148868;27;20035;-77
2023/12/16 08:54:53;;;;;;;12.85;3.25;;;7.70;99.90;;;;;;5113822;27;20483;-77
2023/12/16 08:57:18;;;;;;;20.40;4.45;;;7.70;99.90;;;;;;5114478;28;20039;-77
2023/12/16 08:59:44;;;;;;;13.20;4.20;;;7.80;99.90;;;;;;5097165;28;20407;-77
2023/12/16 09:02:09;;;;;;;12.15;3.42;;;7.80;99.90;;;;;;5097501;28;20035;-77
2023/12/16 09:04:35;;;;;;;12.15;3.83;;;7.80;99.90;;;;;;5115338;27;20548;-77
2023/12/16 09:07:01;;;;;;;20.13;5.85;;;7.80;99.90;;;;;;5147630;27;20085;-77
2023/12/16 09:09:26;;;;;;;19.30;4.20;;;7.70;99.90;;;;;;5131387;27;20089;-77
2023/12/16 09:11:53;;;;;;;18.77;4.97;;;7.70;99.90;;;;;;5148556;27;20044;-77
2023/12/16 09:14:18;;;;;;;15.57;4.38;;;7.70;99.90;;;;;;5130618;27;20435;-77
2023/12/16 09:16:44;;;;;;;16.65;3.80;;;7.80;99.90;;;;;;5129341;27;20050;-77
2023/12/16 09:19:11;;;;;;;12.50;3.70;;;7.80;99.90;;;;;;5114040;28;20044;-77
2023/12/16 09:21:37;;;;;;;9.25;2.67;;;7.80;99.90;;;;;;5097036;28;20117;-77
2023/12/16 09:24:05;;;;;;;18.23;4.70;;;7.80;99.90;;;;;;5098504;28;20114;-77
2023/12/16 09:26:30;;;;;;;19.17;4.90;;;7.80;99.90;;;;;;5112928;27;20066;-77
2023/12/16 09:28:56;;;;;;;17.77;4.65;;;7.70;99.90;;;;;;5112855;28;20435;-77
2023/12/16 09:31:22;;;;;;;16.42;4.97;;;7.80;99.90;;;;;;5113849;28;20047;-77
2023/12/16 09:33:48;;;;;;;20.88;5.28;;;7.70;99.90;;;;;;5097984;27;20035;-77
2023/12/16 09:36:14;;;;;;;22.38;6.03;;;7.80;99.90;;;;;;5112639;28;20035;-77
2023/12/16 09:38:40;;;;;;;16.27;4.63;;;7.70;99.90;;;;;;5095954;28;20096;-77
2023/12/16 09:41:28;;;;;;;19.75;5.45;;;7.80;99.90;;;;;;5113668;28;20476;-77
2023/12/16 09:43:55;;;;;;;11.23;3.22;;;7.80;99.90;;;;;;5119065;27;20067;-77
2023/12/16 09:46:23;;;;;;;13.27;4.65;;;7.80;99.90;;;;;;5105701;28;20474;-77
2023/12/16 09:48:50;;;;;;;21.38;5.30;;;7.80;99.90;;;;;;5111971;28;20072;-77
2023/12/16 09:51:16;;;;;;;17.25;4.82;;;7.80;99.90;;;;;;5130877;27;20112;-77
2023/12/16 09:53:42;;;;;;;20.13;6.15;;;7.90;99.90;;;;;;5130183;27;20124;-77
2023/12/16 09:56:11;;;;;;;19.95;5.25;;;7.90;99.90;;;;;;5110955;28;20047;-77
2023/12/16 09:58:41;;;;;;;22.63;6.45;;;7.90;99.90;;;;;;5125570;27;20051;-77
2023/12/16 10:01:08;;;;;;;12.50;3.20;;;7.90;99.90;;;;;;5092846;28;20039;-77
2023/12/16 10:03:35;;;;;;;14.02;4.30;;;7.90;99.90;;;;;;5124023;27;20129;-77
2023/12/16 10:06:02;;;;;;;24.20;5.22;;;7.90;99.90;;;;;;5112789;27;20044;-77
2023/12/16 10:08:28;;;;;;;19.40;4.97;;;7.90;99.90;;;;;;5117106;27;20036;-77
2023/12/16 10:10:58;;;;;;;17.17;4.47;;;7.90;99.90;;;;;;5095510;28;20483;-77
2023/12/16 10:13:25;;;;;;;17.55;4.18;;;7.90;99.90;;;;;;5111986;28;20088;-77
2023/12/16 10:15:51;;;;;;;20.08;4.32;;;7.90;99.90;;;;;;5128803;27;20445;-77
2023/12/16 10:18:17;;;;;;;20.63;5.78;;;8.00;99.90;;;;;;5092164;28;21310;-77
2023/12/16 10:20:43;;;;;;;15.85;5.35;;;8.00;99.90;;;;;;5095457;28;20510;-76
2023/12/16 10:23:10;;;;;;;14.93;4.22;;;7.90;99.90;;;;;;5089712;28;20043;-76
2023/12/16 10:25:36;;;;;;;22.40;5.43;;;7.90;99.90;;;;;;5101460;27;20035;-76
2023/12/16 10:28:02;;;;;;;18.60;5.35;;;8.00;99.90;;;;;;5104673;27;20043;-76
2023/12/16 10:30:31;;;;;;;15.52;4.45;;;8.00;99.90;;;;;;5126101;27;20042;-77
2023/12/16 10:32:57;;;;;;;13.88;4.38;;;8.00;99.90;;;;;;5128636;27;20035;-76
2023/12/16 10:35:23;;;;;;;10.73;3.10;;;7.90;99.90;;;;;;5112468;28;20042;-76
2023/12/16 10:37:50;;;;;;;26.50;3.65;;;8.00;99.90;;;;;;5111683;28;20047;-76
2023/12/16 10:40:17;;;;;;;19.20;5.28;;;8.00;99.90;;;;;;5085620;28;20491;-76
2023/12/16 10:42:43;;;;;;;13.93;5.50;;;7.90;99.90;;;;;;5112217;27;20039;-76
2023/12/16 10:45:12;;;;;;;17.02;4.53;;;7.90;99.90;;;;;;5130974;27;20031;-76
2023/12/16 10:47:39;;;;;;;8.88;3.83;;;8.00;99.90;;;;;;5094586;28;20032;-76
2023/12/16 10:50:06;;;;;;;10.45;4.05;;;8.10;99.90;;;;;;5096791;28;20042;-76
2023/12/16 10:52:41;;;;;;;15.60;5.38;;;8.00;99.90;;;;;;5091996;28;20067;-76
2023/12/16 10:55:14;;;;;;;16.63;5.28;;;8.10;99.90;;;;;;5110716;27;20402;-76
2023/12/16 10:57:57;;;;;;;16.98;5.53;;;8.00;99.90;;;;;;5130330;27;20100;-76
2023/12/16 11:00:28;;;;;;;15.57;5.40;;;8.10;99.90;;;;;;5145437;27;20150;-76
2023/12/16 11:03:15;;;;;;;24.23;7.43;;;8.00;99.90;;;;;;5143073;27;20027;-76
2023/12/16 11:05:50;;;;;;;16.45;5.25;;;8.00;99.90;;;;;;5094652;28;20116;-76
2023/12/16 11:08:16;;;;;;;17.80;6.50;;;8.00;99.90;;;;;;5129439;28;20040;-76
2023/12/16 11:10:42;;;;;;;18.52;8.05;;;8.00;99.90;;;;;;5127896;27;20035;-76
2023/12/16 11:13:08;;;;;;;16.52;5.65;;;8.10;99.90;;;;;;5145739;27;20422;-76
2023/12/16 11:15:34;;;;;;;16.77;6.25;;;8.00;99.90;;;;;;5127672;27;20027;-76
2023/12/16 11:18:26;;;;;;;18.73;6.10;;;8.10;99.90;;;;;;5128293;27;20515;-76
2023/12/16 11:20:56;;;;;;;15.30;4.78;;;8.10;99.90;;;;;;5087766;28;20039;-76
2023/12/16 11:23:23;;;;;;;14.48;4.82;;;8.10;99.90;;;;;;5094299;28;20081;-76
2023/12/16 11:25:51;;;;;;;19.23;7.13;;;8.00;99.90;;;;;;5146750;27;20046;-77
2023/12/16 11:28:18;;;;;;;15.27;6.95;;;8.10;99.90;;;;;;5145894;27;20035;-76
2023/12/16 11:30:44;;;;;;;14.90;5.57;;;8.00;99.90;;;;;;5126535;27;20115;-77
2023/12/16 11:33:11;;;;;;;14.52;7.40;;;8.00;99.90;;;;;;5094989;28;20118;-76
2023/12/16 11:35:37;;;;;;;17.45;8.25;;;8.10;99.90;;;;;;5094865;28;20098;-76
2023/12/16 11:38:07;;;;;;;10.10;4.75;;;8.00;99.90;;;;;;5094114;28;20491;-76
2023/12/16 11:40:41;;;;;;;6.38;3.45;;;8.10;99.90;;;;;;5109537;28;20126;-76
2023/12/16 11:43:07;;;;;;;19.17;7.50;;;8.20;99.90;;;;;;5114685;28;20036;-76
2023/12/16 11:45:39;;;;;;;9.30;4.72;;;8.20;99.90;;;;;;5098487;28;20063;-76
2023/12/16 11:48:09;;;;;;;15.95;6.05;;;8.10;99.90;;;;;;5115131;28;20039;-76
2023/12/16 11:50:37;;;;;;;15.98;5.65;;;8.20;99.90;;;;;;5114657;27;20480;-76
2023/12/16 11:53:04;;;;;;;14.75;6.95;;;8.10;99.90;;;;;;5115345;28;20031;-76
2023/12/16 11:55:30;;;;;;;17.63;7.20;;;8.30;99.90;;;;;;5097931;28;20035;-76
2023/12/16 11:57:56;;;;;;;17.77;6.80;;;8.30;99.90;;;;;;5098069;28;20352;-77
2023/12/16 12:00:22;;;;;;;16.85;7.15;;;8.20;99.90;;;;;;5112055;27;20048;-76
2023/12/16 12:02:50;;;;;;;22.33;8.68;;;8.20;99.90;;;;;;5094701;28;20036;-76
2023/12/16 12:05:16;;;;;;;16.52;6.45;;;8.20;99.90;;;;;;5113915;28;20071;-76
2023/12/16 12:07:42;;;;;;;17.83;8.00;;;8.30;99.90;;;;;;5098065;28;20124;-76
2023/12/16 12:10:11;;;;;;;22.98;8.27;;;8.20;99.90;;;;;;5130839;27;20555;-77
2023/12/16 12:12:37;;;;;;;20.60;8.18;;;8.20;99.90;;;;;;5114616;28;20078;-76
2023/12/16 12:15:03;;;;;;;15.55;7.60;;;8.20;99.90;;;;;;5097894;28;20031;-76
2023/12/16 12:17:29;;;;;;;15.48;6.72;;;8.20;99.90;;;;;;5097075;28;20433;-76
2023/12/16 12:19:55;;;;;;;14.05;6.22;;;8.30;99.90;;;;;;5098819;28;20040;-77
2023/12/16 12:22:22;;;;;;;12.60;5.97;;;8.40;99.90;;;;;;5114689;28;20054;-76
2023/12/16 12:24:49;;;;;;;13.18;4.88;;;8.40;99.90;;;;;;5116580;27;20043;-76
2023/12/16 12:27:14;;;;;;;11.82;4.93;;;8.40;99.90;;;;;;5114641;28;20047;-76
2023/12/16 12:29:59;;;;;;;7.82;3.28;;;8.40;99.90;;;;;;5113109;28;20083;-76
2023/12/16 12:32:27;;;;;;;11.52;5.80;;;8.60;99.90;;;;;;5149456;27;20418;-76
2023/12/16 12:35:04;;;;;;;11.35;4.18;;;8.60;99.90;;;;;;5146586;27;20487;-76
2023/12/16 12:37:42;;;;;;;14.55;6.40;;;8.50;99.90;;;;;;5114402;28;20035;-76
2023/12/16 12:40:16;;;;;;;12.55;5.18;;;8.50;99.90;;;;;;5126839;27;20050;-76
2023/12/16 12:42:46;;;;;;;7.43;3.33;;;8.50;99.90;;;;;;5117752;27;20027;-76
2023/12/16 12:45:22;;;;;;;11.48;4.22;;;8.60;99.90;;;;;;5118655;27;20134;-77
2023/12/16 12:47:49;;;;;;;11.05;4.95;;;8.60;99.90;;;;;;5097305;28;20036;-76